sensor_id;sensor_type;location;lat;lon;timestamp;pressure;altitude;pressure_sealevel;temperature;humidity
60244;BME280;46106;51.468;5.814;2024-01-11T00:00:56;102877.84;;;-5.15;100.00
60244;BME280;46106;51.468;5.814;2024-01-11T00:03:24;102891.16;;;-5.17;100.00
60244;BME280;46106;51.468;5.814;2024-01-11T00:05:50;102898.28;;;-5.17;100.00
60244;BME280;46106;51.468;5.814;2024-01-11T00:08:16;102895.72;;;-5.12;100.00
60244;BME280;46106;51.468;5.814;2024-01-11T00:10:41;102889.34;;;-5.19;100.00
60244;BME280;46106;51.468;5.814;2024-01-11T00:13:06;102884.00;;;-5.19;100.00
60244;BME280;46106;51.468;5.814;2024-01-11T00:15:32;102891.16;;;-5.18;100.00
60244;BME280;46106;51.468;5.814;2024-01-11T00:17:57;102891.13;;;-5.20;100.00
60244;BME280;46106;51.468;5.814;2024-01-11T00:20:23;102890.13;;;-5.25;100.00
60244;BME280;46106;51.468;5.814;2024-01-11T00:22:49;102891.88;;;-5.27;100.00
60244;BME280;46106;51.468;5.814;2024-01-11T00:25:15;102897.34;;;-5.21;100.00
60244;BME280;46106;51.468;5.814;2024-01-11T00:27:40;102890.13;;;-5.26;100.00
60244;BME280;46106;51.468;5.814;2024-01-11T00:30:07;102902.56;;;-5.25;100.00
60244;BME280;46106;51.468;5.814;2024-01-11T00:32:35;102900.72;;;-5.29;100.00
60244;BME280;46106;51.468;5.814;2024-01-11T00:35:02;102894.41;;;-5.33;100.00
60244;BME280;46106;51.468;5.814;2024-01-11T00:37:28;102888.25;;;-5.30;100.00
60244;BME280;46106;51.468;5.814;2024-01-11T00:39:53;102893.59;;;-5.30;100.00
60244;BME280;46106;51.468;5.814;2024-01-11T00:42:19;102889.00;;;-5.38;100.00
60244;BME280;46106;51.468;5.814;2024-01-11T00:44:44;102893.34;;;-5.41;100.00
60244;BME280;46106;51.468;5.814;2024-01-11T00:47:10;102888.97;;;-5.39;100.00
60244;BME280;46106;51.468;5.814;2024-01-11T00:49:36;102896.81;;;-5.47;100.00
60244;BME280;46106;51.468;5.814;2024-01-11T00:52:04;102899.56;;;-5.44;100.00
60244;BME280;46106;51.468;5.814;2024-01-11T00:54:29;102893.38;;;-5.40;100.00
60244;BME280;46106;51.468;5.814;2024-01-11T00:56:57;102900.50;;;-5.40;100.00
60244;BME280;46106;51.468;5.814;2024-01-11T00:59:22;102892.47;;;-5.42;100.00
60244;BME280;46106;51.468;5.814;2024-01-11T01:01:49;102897.78;;;-5.43;100.00
60244;BME280;46106;51.468;5.814;2024-01-11T01:04:15;102891.41;;;-5.50;100.00
60244;BME280;46106;51.468;5.814;2024-01-11T01:06:41;102885.16;;;-5.52;100.00
60244;BME280;46106;51.468;5.814;2024-01-11T01:09:20;102887.00;;;-5.48;100.00
60244;BME280;46106;51.468;5.814;2024-01-11T01:11:46;102886.06;;;-5.50;100.00
60244;BME280;46106;51.468;5.814;2024-01-11T01:14:13;102880.84;;;-5.45;100.00
60244;BME280;46106;51.468;5.814;2024-01-11T01:16:39;102887.00;;;-5.48;100.00
60244;BME280;46106;51.468;5.814;2024-01-11T01:19:05;102894.19;;;-5.45;100.00
60244;BME280;46106;51.468;5.814;2024-01-11T01:21:31;102898.53;;;-5.50;100.00
60244;BME280;46106;51.468;5.814;2024-01-11T01:23:57;102910.09;;;-5.50;100.00
60244;BME280;46106;51.468;5.814;2024-01-11T01:26:24;102905.59;;;-5.51;100.00
60244;BME280;46106;51.468;5.814;2024-01-11T01:28:51;102905.69;;;-5.48;100.00
60244;BME280;46106;51.468;5.814;2024-01-11T01:31:24;102910.00;;;-5.55;100.00
60244;BME280;46106;51.468;5.814;2024-01-11T01:33:49;102912.56;;;-5.59;100.00
60244;BME280;46106;51.468;5.814;2024-01-11T01:36:15;102904.47;;;-5.64;100.00
60244;BME280;46106;51.468;5.814;2024-01-11T01:38:40;102905.28;;;-5.68;100.00
60244;BME280;46106;51.468;5.814;2024-01-11T01:41:07;102901.53;;;-5.76;100.00
60244;BME280;46106;51.468;5.814;2024-01-11T01:43:32;102922.13;;;-5.70;100.00
60244;BME280;46106;51.468;5.814;2024-01-11T01:46:01;102909.72;;;-5.68;100.00
60244;BME280;46106;51.468;5.814;2024-01-11T01:48:28;102920.41;;;-5.67;100.00
60244;BME280;46106;51.468;5.814;2024-01-11T01:50:54;102924.94;;;-5.63;100.00
60244;BME280;46106;51.468;5.814;2024-01-11T01:53:22;102924.94;;;-5.63;100.00
60244;BME280;46106;51.468;5.814;2024-01-11T01:55:50;102934.50;;;-5.73;100.00
60244;BME280;46106;51.468;5.814;2024-01-11T01:58:20;102939.88;;;-5.71;100.00
60244;BME280;46106;51.468;5.814;2024-01-11T02:00:49;102936.31;;;-5.72;100.00
60244;BME280;46106;51.468;5.814;2024-01-11T02:03:18;102941.50;;;-5.78;100.00
60244;BME280;46106;51.468;5.814;2024-01-11T02:05:43;102935.31;;;-5.77;100.00
60244;BME280;46106;51.468;5.814;2024-01-11T02:08:12;102936.03;;;-5.84;100.00
60244;BME280;46106;51.468;5.814;2024-01-11T02:10:45;102929.84;;;-5.83;100.00
60244;BME280;46106;51.468;5.814;2024-01-11T02:13:12;102936.22;;;-5.76;100.00
60244;BME280;46106;51.468;5.814;2024-01-11T02:15:39;102933.41;;;-5.82;100.00
60244;BME280;46106;51.468;5.814;2024-01-11T02:18:06;102927.22;;;-5.81;100.00
60244;BME280;46106;51.468;5.814;2024-01-11T02:20:33;102928.44;;;-5.67;100.00
60244;BME280;46106;51.468;5.814;2024-01-11T02:23:05;102928.19;;;-5.78;100.00
60244;BME280;46106;51.468;5.814;2024-01-11T02:25:32;102927.97;;;-5.88;100.00
60244;BME280;46106;51.468;5.814;2024-01-11T02:27:59;102934.09;;;-5.91;100.00
60244;BME280;46106;51.468;5.814;2024-01-11T02:30:24;102935.97;;;-5.88;100.00
60244;BME280;46106;51.468;5.814;2024-01-11T02:32:50;102937.63;;;-5.92;100.00
60244;BME280;46106;51.468;5.814;2024-01-11T02:35:16;102941.19;;;-5.93;100.00
60244;BME280;46106;51.468;5.814;2024-01-11T02:37:42;102942.88;;;-5.98;100.00
60244;BME280;46106;51.468;5.814;2024-01-11T02:40:09;102938.47;;;-5.95;100.00
60244;BME280;46106;51.468;5.814;2024-01-11T02:42:35;102936.66;;;-5.97;100.00
60244;BME280;46106;51.468;5.814;2024-01-11T02:45:03;102942.88;;;-5.95;100.00
60244;BME280;46106;51.468;5.814;2024-01-11T02:47:29;102930.41;;;-5.99;100.00
60244;BME280;46106;51.468;5.814;2024-01-11T02:49:55;102933.94;;;-5.99;100.00
60244;BME280;46106;51.468;5.814;2024-01-11T02:52:23;102932.19;;;-6.00;100.00
60244;BME280;46106;51.468;5.814;2024-01-11T02:54:50;102931.28;;;-5.99;100.00
60244;BME280;46106;51.468;5.814;2024-01-11T02:57:16;102917.06;;;-5.99;100.00
60244;BME280;46106;51.468;5.814;2024-01-11T02:59:43;102923.25;;;-6.00;100.00
60244;BME280;46106;51.468;5.814;2024-01-11T03:02:11;102922.28;;;-6.04;100.00
60244;BME280;46106;51.468;5.814;2024-01-11T03:04:37;102924.91;;;-6.05;100.00
60244;BME280;46106;51.468;5.814;2024-01-11T03:07:02;102936.53;;;-6.02;100.00
60244;BME280;46106;51.468;5.814;2024-01-11T03:09:29;102929.41;;;-6.04;100.00
60244;BME280;46106;51.468;5.814;2024-01-11T03:11:56;102927.59;;;-6.05;100.00
60244;BME280;46106;51.468;5.814;2024-01-11T03:14:21;102930.34;;;-6.01;100.00
60244;BME280;46106;51.468;5.814;2024-01-11T03:16:49;102931.94;;;-6.09;100.00
60244;BME280;46106;51.468;5.814;2024-01-11T03:19:14;102915.06;;;-6.10;100.00
60244;BME280;46106;51.468;5.814;2024-01-11T03:21:44;102933.69;;;-6.11;100.00
60244;BME280;46106;51.468;5.814;2024-01-11T03:24:11;102919.44;;;-6.12;100.00
60244;BME280;46106;51.468;5.814;2024-01-11T03:26:37;102918.66;;;-6.07;100.00
60244;BME280;46106;51.468;5.814;2024-01-11T03:29:02;102927.44;;;-6.13;100.00
60244;BME280;46106;51.468;5.814;2024-01-11T03:31:28;102929.47;;;-6.01;100.00
60244;BME280;46106;51.468;5.814;2024-01-11T03:33:53;102938.09;;;-6.12;100.00
60244;BME280;46106;51.468;5.814;2024-01-11T03:36:24;102934.34;;;-6.20;100.00
60244;BME280;46106;51.468;5.814;2024-01-11T03:38:50;102928.16;;;-6.19;100.00
60244;BME280;46106;51.468;5.814;2024-01-11T03:41:15;102911.28;;;-6.19;100.00
60244;BME280;46106;51.468;5.814;2024-01-11T03:43:41;102920.97;;;-6.23;100.00
60244;BME280;46106;51.468;5.814;2024-01-11T03:46:06;102926.22;;;-6.26;100.00
60244;BME280;46106;51.468;5.814;2024-01-11T03:48:32;102936.03;;;-6.23;100.00
60244;BME280;46106;51.468;5.814;2024-01-11T03:50:57;102933.38;;;-6.23;100.00
60244;BME280;46106;51.468;5.814;2024-01-11T03:53:22;102938.78;;;-6.20;100.00
60244;BME280;46106;51.468;5.814;2024-01-11T03:55:50;102945.78;;;-6.25;100.00
60244;BME280;46106;51.468;5.814;2024-01-11T03:58:16;102942.09;;;-6.31;100.00
60244;BME280;46106;51.468;5.814;2024-01-11T04:00:42;102932.34;;;-6.30;100.00
60244;BME280;46106;51.468;5.814;2024-01-11T04:03:07;102931.47;;;-6.29;100.00
60244;BME280;46106;51.468;5.814;2024-01-11T04:05:34;102922.63;;;-6.26;100.00
60244;BME280;46106;51.468;5.814;2024-01-11T04:07:59;102919.81;;;-6.34;100.00
60244;BME280;46106;51.468;5.814;2024-01-11T04:10:25;102940.31;;;-6.30;100.00
60244;BME280;46106;51.468;5.814;2024-01-11T04:12:51;102944.81;;;-6.29;100.00
60244;BME280;46106;51.468;5.814;2024-01-11T04:15:17;102955.38;;;-6.32;100.00
60244;BME280;46106;51.468;5.814;2024-01-11T04:17:42;102960.56;;;-6.38;100.00
60244;BME280;46106;51.468;5.814;2024-01-11T04:20:08;102960.56;;;-6.38;100.00
60244;BME280;46106;51.468;5.814;2024-01-11T04:22:37;102955.16;;;-6.41;100.00
60244;BME280;46106;51.468;5.814;2024-01-11T04:25:06;102960.63;;;-6.35;100.00
60244;BME280;46106;51.468;5.814;2024-01-11T04:27:32;102967.75;;;-6.36;100.00
60244;BME280;46106;51.468;5.814;2024-01-11T04:30:03;102961.56;;;-6.33;100.00
60244;BME280;46106;51.468;5.814;2024-01-11T04:32:29;102969.66;;;-6.30;100.00
60244;BME280;46106;51.468;5.814;2024-01-11T04:34:54;102971.53;;;-6.26;100.00
60244;BME280;46106;51.468;5.814;2024-01-11T04:37:20;102974.28;;;-6.23;100.00
60244;BME280;46106;51.468;5.814;2024-01-11T04:39:48;102980.47;;;-6.24;100.00
60244;BME280;46106;51.468;5.814;2024-01-11T04:42:14;102979.50;;;-6.28;100.00
60244;BME280;46106;51.468;5.814;2024-01-11T04:44:40;102984.91;;;-6.24;100.00
60244;BME280;46106;51.468;5.814;2024-01-11T04:47:07;102965.16;;;-6.33;100.00
60244;BME280;46106;51.468;5.814;2024-01-11T04:49:33;102965.16;;;-6.33;100.00
60244;BME280;46106;51.468;5.814;2024-01-11T04:51:59;102973.00;;;-6.39;100.00
60244;BME280;46106;51.468;5.814;2024-01-11T04:54:25;102982.81;;;-6.36;100.00
60244;BME280;46106;51.468;5.814;2024-01-11T04:56:51;102986.44;;;-6.34;100.00
60244;BME280;46106;51.468;5.814;2024-01-11T04:59:17;102990.75;;;-6.38;100.00
60244;BME280;46106;51.468;5.814;2024-01-11T05:01:46;102987.84;;;-6.49;100.00
60244;BME280;46106;51.468;5.814;2024-01-11T05:04:12;102989.19;;;-6.30;100.00
60244;BME280;46106;51.468;5.814;2024-01-11T05:06:40;102983.72;;;-6.36;100.00
60244;BME280;46106;51.468;5.814;2024-01-11T05:09:07;102984.47;;;-6.41;100.00
60244;BME280;46106;51.468;5.814;2024-01-11T05:11:34;102995.84;;;-6.49;100.00
60244;BME280;46106;51.468;5.814;2024-01-11T05:13:59;102999.25;;;-6.53;100.00
60244;BME280;46106;51.468;5.814;2024-01-11T05:16:27;102988.84;;;-6.43;100.00
60244;BME280;46106;51.468;5.814;2024-01-11T05:18:56;102994.00;;;-6.50;100.00
60244;BME280;46106;51.468;5.814;2024-01-11T05:21:24;102996.53;;;-6.56;100.00
60244;BME280;46106;51.468;5.814;2024-01-11T05:23:52;102984.84;;;-6.61;100.00
60244;BME280;46106;51.468;5.814;2024-01-11T05:26:21;102993.81;;;-6.59;100.00
60244;BME280;46106;51.468;5.814;2024-01-11T05:28:48;102998.06;;;-6.66;100.00
60244;BME280;46106;51.468;5.814;2024-01-11T05:31:14;103000.75;;;-6.64;100.00
60244;BME280;46106;51.468;5.814;2024-01-11T05:33:42;103009.69;;;-6.62;100.00
60244;BME280;46106;51.468;5.814;2024-01-11T05:36:09;102999.16;;;-6.57;100.00
60244;BME280;46106;51.468;5.814;2024-01-11T05:38:37;103015.78;;;-6.66;100.00
60244;BME280;46106;51.468;5.814;2024-01-11T05:41:09;103030.03;;;-6.66;100.00
60244;BME280;46106;51.468;5.814;2024-01-11T05:43:34;103031.09;;;-6.59;100.00
60244;BME280;46106;51.468;5.814;2024-01-11T05:46:00;103017.72;;;-6.60;100.00
60244;BME280;46106;51.468;5.814;2024-01-11T05:48:26;103013.38;;;-6.57;100.00
60244;BME280;46106;51.468;5.814;2024-01-11T05:50:52;103018.53;;;-6.63;100.00
60244;BME280;46106;51.468;5.814;2024-01-11T05:53:18;103023.78;;;-6.66;100.00
60244;BME280;46106;51.468;5.814;2024-01-11T05:55:47;103016.44;;;-6.75;100.00
60244;BME280;46106;51.468;5.814;2024-01-11T05:58:14;103022.78;;;-6.70;100.00
60244;BME280;46106;51.468;5.814;2024-01-11T06:00:39;103015.66;;;-6.71;100.00
60244;BME280;46106;51.468;5.814;2024-01-11T06:03:06;103029.06;;;-6.68;100.00
60244;BME280;46106;51.468;5.814;2024-01-11T06:05:34;103037.78;;;-6.73;100.00
60244;BME280;46106;51.468;5.814;2024-01-11T06:08:00;103022.72;;;-6.73;100.00
60244;BME280;46106;51.468;5.814;2024-01-11T06:10:27;103043.97;;;-6.74;100.00
60244;BME280;46106;51.468;5.814;2024-01-11T06:12:58;103044.91;;;-6.72;100.00
60244;BME280;46106;51.468;5.814;2024-01-11T06:15:33;103046.63;;;-6.74;100.00
60244;BME280;46106;51.468;5.814;2024-01-11T06:18:00;103037.66;;;-6.78;100.00
60244;BME280;46106;51.468;5.814;2024-01-11T06:20:29;103034.06;;;-6.80;100.00
60244;BME280;46106;51.468;5.814;2024-01-11T06:22:54;103030.53;;;-6.79;100.00
60244;BME280;46106;51.468;5.814;2024-01-11T06:25:20;103038.69;;;-6.73;100.00
60244;BME280;46106;51.468;5.814;2024-01-11T06:27:46;103042.84;;;-6.82;100.00
60244;BME280;46106;51.468;5.814;2024-01-11T06:30:12;103053.63;;;-6.78;100.00
60244;BME280;46106;51.468;5.814;2024-01-11T06:32:37;103038.56;;;-6.77;100.00
60244;BME280;46106;51.468;5.814;2024-01-11T06:35:03;103041.56;;;-6.65;100.00
60244;BME280;46106;51.468;5.814;2024-01-11T06:37:30;103040.75;;;-6.62;100.00
60244;BME280;46106;51.468;5.814;2024-01-11T06:39:56;103041.34;;;-6.73;100.00
60244;BME280;46106;51.468;5.814;2024-01-11T06:42:22;103056.25;;;-6.79;100.00
60244;BME280;46106;51.468;5.814;2024-01-11T06:44:47;103046.72;;;-6.71;100.00
60244;BME280;46106;51.468;5.814;2024-01-11T06:47:15;103044.75;;;-6.78;100.00
60244;BME280;46106;51.468;5.814;2024-01-11T06:49:42;103061.28;;;-6.90;100.00
60244;BME280;46106;51.468;5.814;2024-01-11T06:52:09;103050.78;;;-6.84;100.00
60244;BME280;46106;51.468;5.814;2024-01-11T06:54:34;103054.66;;;-6.73;100.00
60244;BME280;46106;51.468;5.814;2024-01-11T06:57:00;103061.44;;;-6.84;100.00
60244;BME280;46106;51.468;5.814;2024-01-11T06:59:25;103053.63;;;-6.78;100.00
60244;BME280;46106;51.468;5.814;2024-01-11T07:01:50;103058.88;;;-6.81;100.00
60244;BME280;46106;51.468;5.814;2024-01-11T07:04:19;103055.59;;;-6.71;100.00
60244;BME280;46106;51.468;5.814;2024-01-11T07:06:44;103063.53;;;-6.74;100.00
60244;BME280;46106;51.468;5.814;2024-01-11T07:09:09;103066.81;;;-6.82;100.00
60244;BME280;46106;51.468;5.814;2024-01-11T07:11:36;103059.72;;;-6.84;100.00
60244;BME280;46106;51.468;5.814;2024-01-11T07:14:01;103076.59;;;-6.83;100.00
60244;BME280;46106;51.468;5.814;2024-01-11T07:16:29;103074.72;;;-6.86;100.00
60244;BME280;46106;51.468;5.814;2024-01-11T07:18:55;103085.75;;;-6.73;100.00
60244;BME280;46106;51.468;5.814;2024-01-11T07:21:22;103089.06;;;-6.80;100.00
60244;BME280;46106;51.468;5.814;2024-01-11T07:23:55;103072.16;;;-6.82;100.00
60244;BME280;46106;51.468;5.814;2024-01-11T07:26:22;103076.16;;;-6.67;100.00
60244;BME280;46106;51.468;5.814;2024-01-11T07:28:48;103082.88;;;-6.79;100.00
60244;BME280;46106;51.468;5.814;2024-01-11T07:31:14;103083.81;;;-6.77;100.00
60244;BME280;46106;51.468;5.814;2024-01-11T07:33:39;103072.28;;;-6.78;100.00
60244;BME280;46106;51.468;5.814;2024-01-11T07:36:06;103091.72;;;-6.80;100.00
60244;BME280;46106;51.468;5.814;2024-01-11T07:38:32;103085.47;;;-6.82;100.00
60244;BME280;46106;51.468;5.814;2024-01-11T07:40:59;103096.25;;;-6.78;100.00
60244;BME280;46106;51.468;5.814;2024-01-11T07:43:25;103090.13;;;-6.75;100.00
60244;BME280;46106;51.468;5.814;2024-01-11T07:45:51;103088.63;;;-6.66;100.00
60244;BME280;46106;51.468;5.814;2024-01-11T07:48:17;103107.94;;;-6.73;100.00
60244;BME280;46106;51.468;5.814;2024-01-11T07:50:42;103101.34;;;-6.86;100.00
60244;BME280;46106;51.468;5.814;2024-01-11T07:53:08;103098.72;;;-6.84;100.00
60244;BME280;46106;51.468;5.814;2024-01-11T07:55:33;103098.16;;;-6.72;100.00
60244;BME280;46106;51.468;5.814;2024-01-11T07:58:00;103099.56;;;-6.87;100.00
60244;BME280;46106;51.468;5.814;2024-01-11T08:00:26;103087.53;;;-6.72;100.00
60244;BME280;46106;51.468;5.814;2024-01-11T08:02:51;103090.22;;;-6.71;100.00
60244;BME280;46106;51.468;5.814;2024-01-11T08:05:17;103076.03;;;-6.71;100.00
60244;BME280;46106;51.468;5.814;2024-01-11T08:07:43;103047.38;;;-6.80;100.00
60244;BME280;46106;51.468;5.814;2024-01-11T08:10:08;103071.53;;;-6.72;100.00
60244;BME280;46106;51.468;5.814;2024-01-11T08:12:34;103076.25;;;-6.63;100.00
60244;BME280;46106;51.468;5.814;2024-01-11T08:15:00;103072.75;;;-6.61;100.00
60244;BME280;46106;51.468;5.814;2024-01-11T08:17:26;103075.59;;;-6.55;100.00
60244;BME280;46106;51.468;5.814;2024-01-11T08:19:51;103081.72;;;-6.59;100.00
60244;BME280;46106;51.468;5.814;2024-01-11T08:22:17;103085.31;;;-6.57;100.00
60244;BME280;46106;51.468;5.814;2024-01-11T08:24:43;103087.19;;;-6.53;100.00
60244;BME280;46106;51.468;5.814;2024-01-11T08:27:08;103081.19;;;-6.45;100.00
60244;BME280;46106;51.468;5.814;2024-01-11T08:29:34;103081.41;;;-6.36;100.00
60244;BME280;46106;51.468;5.814;2024-01-11T08:31:59;103078.88;;;-6.32;100.00
60244;BME280;46106;51.468;5.814;2024-01-11T08:34:29;103079.63;;;-6.37;100.00
60244;BME280;46106;51.468;5.814;2024-01-11T08:36:56;103091.53;;;-6.24;100.00
60244;BME280;46106;51.468;5.814;2024-01-11T08:39:21;103062.97;;;-6.29;100.00
60244;BME280;46106;51.468;5.814;2024-01-11T08:41:48;103080.94;;;-6.21;100.00
60244;BME280;46106;51.468;5.814;2024-01-11T08:44:13;103068.44;;;-6.24;100.00
60244;BME280;46106;51.468;5.814;2024-01-11T08:46:39;103068.69;;;-6.15;100.00
60244;BME280;46106;51.468;5.814;2024-01-11T08:49:04;103071.34;;;-6.15;100.00
60244;BME280;46106;51.468;5.814;2024-01-11T08:51:30;103071.25;;;-6.18;100.00
60244;BME280;46106;51.468;5.814;2024-01-11T08:53:57;103093.72;;;-6.08;100.00
60244;BME280;46106;51.468;5.814;2024-01-11T08:56:23;103102.00;;;-5.97;100.00
60244;BME280;46106;51.468;5.814;2024-01-11T08:58:48;103090.47;;;-5.95;100.00
60244;BME280;46106;51.468;5.814;2024-01-11T09:01:15;103087.81;;;-5.96;100.00
60244;BME280;46106;51.468;5.814;2024-01-11T09:03:40;103096.16;;;-5.81;100.00
60244;BME280;46106;51.468;5.814;2024-01-11T09:06:07;103083.69;;;-5.82;100.00
60244;BME280;46106;51.468;5.814;2024-01-11T09:08:33;103080.06;;;-5.84;100.00
60244;BME280;46106;51.468;5.814;2024-01-11T09:10:59;103095.38;;;-5.77;100.00
60244;BME280;46106;51.468;5.814;2024-01-11T09:13:30;103093.72;;;-5.72;100.00
60244;BME280;46106;51.468;5.814;2024-01-11T09:15:56;103097.44;;;-5.65;100.00
60244;BME280;46106;51.468;5.814;2024-01-11T09:18:21;103101.00;;;-5.64;100.00
60244;BME280;46106;51.468;5.814;2024-01-11T09:20:47;103101.13;;;-5.60;100.00
60244;BME280;46106;51.468;5.814;2024-01-11T09:23:14;103104.91;;;-5.50;100.00
60244;BME280;46106;51.468;5.814;2024-01-11T09:25:40;103112.94;;;-5.48;100.00
60244;BME280;46106;51.468;5.814;2024-01-11T09:28:06;103120.38;;;-5.35;100.00
60244;BME280;46106;51.468;5.814;2024-01-11T09:30:31;103109.63;;;-5.38;100.00
60244;BME280;46106;51.468;5.814;2024-01-11T09:32:57;103111.44;;;-5.37;100.00
60244;BME280;46106;51.468;5.814;2024-01-11T09:35:23;103118.75;;;-5.28;100.00
60244;BME280;46106;51.468;5.814;2024-01-11T09:37:51;103133.38;;;-5.12;100.00
60244;BME280;46106;51.468;5.814;2024-01-11T09:40:18;103141.06;;;-4.87;100.00
60244;BME280;46106;51.468;5.814;2024-01-11T09:42:44;103139.66;;;-4.69;100.00
60244;BME280;46106;51.468;5.814;2024-01-11T09:45:12;103142.22;;;-4.74;100.00
60244;BME280;46106;51.468;5.814;2024-01-11T09:47:39;103144.38;;;-4.57;100.00
60244;BME280;46106;51.468;5.814;2024-01-11T09:50:08;103145.66;;;-4.37;100.00
60244;BME280;46106;51.468;5.814;2024-01-11T09:52:33;103144.22;;;-4.19;100.00
60244;BME280;46106;51.468;5.814;2024-01-11T09:55:00;103148.03;;;-4.05;100.00
60244;BME280;46106;51.468;5.814;2024-01-11T09:57:30;103151.22;;;-3.77;100.00
60244;BME280;46106;51.468;5.814;2024-01-11T09:59:57;103153.78;;;-3.85;100.00
60244;BME280;46106;51.468;5.814;2024-01-11T10:02:26;103141.63;;;-3.64;100.00
60244;BME280;46106;51.468;5.814;2024-01-11T10:04:55;103143.97;;;-3.33;100.00
60244;BME280;46106;51.468;5.814;2024-01-11T10:07:22;103141.41;;;-3.23;100.00
60244;BME280;46106;51.468;5.814;2024-01-11T10:09:48;103145.66;;;-3.38;100.00
60244;BME280;46106;51.468;5.814;2024-01-11T10:12:15;103139.09;;;-2.97;100.00
60244;BME280;46106;51.468;5.814;2024-01-11T10:14:40;103153.19;;;-3.12;100.00
60244;BME280;46106;51.468;5.814;2024-01-11T10:17:06;103149.38;;;-3.26;100.00
60244;BME280;46106;51.468;5.814;2024-01-11T10:19:32;103157.84;;;-2.99;100.00
60244;BME280;46106;51.468;5.814;2024-01-11T10:21:59;103147.91;;;-3.07;100.00
60244;BME280;46106;51.468;5.814;2024-01-11T10:24:25;103133.59;;;-3.09;100.00
60244;BME280;46106;51.468;5.814;2024-01-11T10:26:59;103148.38;;;-2.75;100.00
60244;BME280;46106;51.468;5.814;2024-01-11T10:29:33;103154.44;;;-2.88;100.00
60244;BME280;46106;51.468;5.814;2024-01-11T10:32:00;103168.81;;;-2.82;100.00
60244;BME280;46106;51.468;5.814;2024-01-11T10:34:26;103177.78;;;-2.80;100.00
60244;BME280;46106;51.468;5.814;2024-01-11T10:36:53;103160.63;;;-2.92;100.00
60244;BME280;46106;51.468;5.814;2024-01-11T10:39:24;103168.03;;;-2.74;100.00
60244;BME280;46106;51.468;5.814;2024-01-11T10:41:52;103171.84;;;-2.57;100.00
60244;BME280;46106;51.468;5.814;2024-01-11T10:44:21;103168.34;;;-2.50;100.00
60244;BME280;46106;51.468;5.814;2024-01-11T10:46:50;103156.16;;;-2.25;100.00
60244;BME280;46106;51.468;5.814;2024-01-11T10:49:19;103168.03;;;-2.01;100.00
60244;BME280;46106;51.468;5.814;2024-01-11T10:51:58;103174.16;;;-2.13;100.00
60244;BME280;46106;51.468;5.814;2024-01-11T10:54:24;103158.09;;;-2.11;100.00
60244;BME280;46106;51.468;5.814;2024-01-11T10:56:51;103166.13;;;-2.13;100.00
60244;BME280;46106;51.468;5.814;2024-01-11T10:59:18;103167.97;;;-2.06;100.00
60244;BME280;46106;51.468;5.814;2024-01-11T11:01:46;103145.06;;;-1.68;100.00
60244;BME280;46106;51.468;5.814;2024-01-11T11:04:13;103144.91;;;-1.88;100.00
60244;BME280;46106;51.468;5.814;2024-01-11T11:06:41;103151.13;;;-1.89;100.00
60244;BME280;46106;51.468;5.814;2024-01-11T11:09:08;103149.09;;;-1.12;100.00
60244;BME280;46106;51.468;5.814;2024-01-11T11:11:35;103149.81;;;-1.36;100.00
60244;BME280;46106;51.468;5.814;2024-01-11T11:14:01;103146.03;;;-1.61;100.00
60244;BME280;46106;51.468;5.814;2024-01-11T11:16:26;103152.94;;;-0.70;100.00
60244;BME280;46106;51.468;5.814;2024-01-11T11:18:54;103160.75;;;-1.13;100.00
60244;BME280;46106;51.468;5.814;2024-01-11T11:21:21;103153.88;;;-0.63;100.00
60244;BME280;46106;51.468;5.814;2024-01-11T11:23:46;103139.41;;;-0.81;100.00
60244;BME280;46106;51.468;5.814;2024-01-11T11:26:18;103144.63;;;-1.08;100.00
60244;BME280;46106;51.468;5.814;2024-01-11T11:28:46;103132.25;;;-0.83;100.00
60244;BME280;46106;51.468;5.814;2024-01-11T11:31:13;103152.13;;;-0.50;100.00
60244;BME280;46106;51.468;5.814;2024-01-11T11:33:59;103150.22;;;-0.73;100.00
60244;BME280;46106;51.468;5.814;2024-01-11T11:36:29;103158.75;;;-1.40;100.00
60244;BME280;46106;51.468;5.814;2024-01-11T11:38:56;103168.00;;;-1.00;100.00
60244;BME280;46106;51.468;5.814;2024-01-11T11:41:26;103151.09;;;-0.82;100.00
60244;BME280;46106;51.468;5.814;2024-01-11T11:43:51;103141.28;;;-0.70;100.00
60244;BME280;46106;51.468;5.814;2024-01-11T11:46:18;103146.75;;;-0.50;100.00
60244;BME280;46106;51.468;5.814;2024-01-11T11:48:49;103127.00;;;-0.54;100.00
60244;BME280;46106;51.468;5.814;2024-01-11T11:51:17;103147.34;;;-1.05;100.00
60244;BME280;46106;51.468;5.814;2024-01-11T11:53:50;103159.91;;;-1.03;100.00
60244;BME280;46106;51.468;5.814;2024-01-11T11:56:20;103157.13;;;-1.21;100.00
60244;BME280;46106;51.468;5.814;2024-01-11T11:58:49;103158.88;;;-1.23;100.00
60244;BME280;46106;51.468;5.814;2024-01-11T12:01:19;103166.84;;;-1.37;100.00
60244;BME280;46106;51.468;5.814;2024-01-11T12:03:48;103156.16;;;-1.30;100.00
60244;BME280;46106;51.468;5.814;2024-01-11T12:06:19;103156.16;;;-1.30;100.00
60244;BME280;46106;51.468;5.814;2024-01-11T12:08:47;103158.06;;;-1.10;100.00
60244;BME280;46106;51.468;5.814;2024-01-11T12:11:18;103149.91;;;-1.24;100.00
60244;BME280;46106;51.468;5.814;2024-01-11T12:13:44;103148.00;;;-1.39;100.00
60244;BME280;46106;51.468;5.814;2024-01-11T12:16:11;103138.13;;;-1.40;100.00
60244;BME280;46106;51.468;5.814;2024-01-11T12:18:39;103121.03;;;-1.50;100.00
60244;BME280;46106;51.468;5.814;2024-01-11T12:21:05;103123.78;;;-1.45;100.00
60244;BME280;46106;51.468;5.814;2024-01-11T12:23:31;103133.66;;;-1.44;100.00
60244;BME280;46106;51.468;5.814;2024-01-11T12:25:58;103136.31;;;-1.45;100.00
60244;BME280;46106;51.468;5.814;2024-01-11T12:28:26;103119.31;;;-1.41;100.00
60244;BME280;46106;51.468;5.814;2024-01-11T12:30:51;103120.19;;;-1.47;100.00
60244;BME280;46106;51.468;5.814;2024-01-11T12:33:17;103123.88;;;-1.33;100.00
60244;BME280;46106;51.468;5.814;2024-01-11T12:35:44;103122.06;;;-1.34;100.00
60244;BME280;46106;51.468;5.814;2024-01-11T12:38:10;103098.75;;;-1.41;100.00